Time;durP1;ratioP1;P1;durP2;ratioP2;P2;SDS_P1;SDS_P2;PMS_P1;PMS_P2;Temp;Humidity;BMP_temperature;BMP_pressure;BME280_temperature;BME280_humidity;BME280_pressure;Samples;Min_cycle;Max_cycle;Signal;HPM_P1;HPM_P2
2023/12/29 00:01:50;;;;;;;10.52;3.88;;;19.50;1.00;;;;;;5075185;28;20071;-71
2023/12/29 00:04:15;;;;;;;17.70;3.78;;;19.60;1.00;;;;;;5058818;28;20091;-71
2023/12/29 00:06:41;;;;;;;10.52;3.40;;;;;;;;;;5058647;28;20106;-72
2023/12/29 00:09:07;;;;;;;17.75;3.88;;;19.60;1.00;;;;;;5075430;28;20117;-71
2023/12/29 00:11:33;;;;;;;20.95;4.07;;;19.60;1.00;;;;;;5075422;28;20040;-71
2023/12/29 00:13:59;;;;;;;16.40;3.63;;;;;;;;;;5074504;28;20048;-71
2023/12/29 00:16:27;;;;;;;20.90;3.33;;;19.60;1.00;;;;;;5075011;28;20046;-71
2023/12/29 00:18:53;;;;;;;20.13;4.32;;;;;;;;;;5075108;28;20043;-71
2023/12/29 00:21:19;;;;;;;15.13;4.10;;;;;;;;;;5075165;28;20040;-69
2023/12/29 00:23:45;;;;;;;15.82;3.70;;;19.50;1.00;;;;;;5073771;28;20051;-71
2023/12/29 00:26:10;;;;;;;17.92;3.42;;;19.50;1.00;;;;;;5074771;28;20036;-71
2023/12/29 00:28:40;;;;;;;21.17;4.07;;;19.40;1.00;;;;;;5074881;28;20040;-71
2023/12/29 00:31:06;;;;;;;18.60;3.47;;;19.50;1.00;;;;;;5074990;28;20710;-71
2023/12/29 00:33:32;;;;;;;17.70;3.08;;;;;;;;;;5057782;28;20196;-72
2023/12/29 00:35:58;;;;;;;24.27;4.25;;;;;;;;;;5074648;28;20523;-72
2023/12/29 00:38:27;;;;;;;21.85;3.95;;;19.60;1.00;;;;;;5074712;28;20046;-72
2023/12/29 00:40:53;;;;;;;15.80;3.63;;;;;;;;;;5074929;28;20079;-71
2023/12/29 00:43:19;;;;;;;20.25;4.78;;;;;;;;;;5074141;28;20071;-72
2023/12/29 00:45:45;;;;;;;19.35;3.80;;;;;;;;;;5074541;28;20048;-72
2023/12/29 00:48:11;;;;;;;20.13;3.17;;;;;;;;;;5074584;28;20471;-71
2023/12/29 00:50:36;;;;;;;14.07;3.08;;;19.50;1.00;;;;;;5074691;28;20311;-71
2023/12/29 00:53:02;;;;;;;17.75;3.60;;;19.60;1.00;;;;;;5057454;28;20108;-71
2023/12/29 00:55:27;;;;;;;17.70;3.22;;;19.50;1.00;;;;;;5074512;28;20040;-71
2023/12/29 00:57:54;;;;;;;13.65;3.70;;;;;;;;;;5057679;28;20542;-71
2023/12/29 01:00:19;;;;;;;14.50;3.28;;;19.40;1.00;;;;;;5074257;28;20503;-71
2023/12/29 01:02:46;;;;;;;19.70;3.08;;;;;;;;;;5073927;28;20040;-71
2023/12/29 01:05:16;;;;;;;14.40;3.53;;;19.50;1.00;;;;;;5074958;28;20044;-71
2023/12/29 01:07:42;;;;;;;16.02;3.53;;;;;;;;;;5074477;28;20090;-70
2023/12/29 01:10:08;;;;;;;19.52;4.10;;;19.40;1.00;;;;;;5074224;28;20044;-71
2023/12/29 01:12:34;;;;;;;22.90;4.60;;;;;;;;;;5073552;28;20035;-71
2023/12/29 01:15:00;;;;;;;21.40;4.35;;;;;;;;;;5073894;28;20046;-72
2023/12/29 01:17:28;;;;;;;25.35;4.47;;;;;;;;;;5074154;28;20039;-72
2023/12/29 01:19:53;;;;;;;16.75;3.67;;;19.30;1.00;;;;;;5074298;28;20403;-71
2023/12/29 01:22:19;;;;;;;22.20;3.95;;;19.50;1.00;;;;;;5073283;28;20036;-71
2023/12/29 01:24:45;;;;;;;22.17;3.90;;;19.50;1.70;;;;;;5073893;28;20036;-71
2023/12/29 01:27:11;;;;;;;21.77;4.07;;;;;;;;;;5057234;28;20074;-71
2023/12/29 01:29:37;;;;;;;19.48;4.60;;;;;;;;;;5073998;28;20507;-72
2023/12/29 01:32:03;;;;;;;18.73;3.60;;;;;;;;;;5073540;28;20040;-71
2023/12/29 01:34:33;;;;;;;12.63;4.03;;;19.70;1.00;;;;;;5073289;28;20063;-71
2023/12/29 01:37:00;;;;;;;13.82;3.35;;;19.70;1.00;;;;;;5056969;28;20165;-71
2023/12/29 01:39:25;;;;;;;15.90;3.13;;;19.60;1.00;;;;;;5074397;28;20496;-71
2023/12/29 01:41:51;;;;;;;19.48;3.72;;;19.60;1.00;;;;;;5073219;28;20079;-71
2023/12/29 01:44:22;;;;;;;15.18;3.42;;;19.60;1.00;;;;;;5073663;28;20040;-71
2023/12/29 01:46:53;;;;;;;10.75;3.03;;;19.30;1.00;;;;;;5056769;28;20043;-70
2023/12/29 01:49:20;;;;;;;11.57;2.90;;;19.20;1.00;;;;;;5073585;28;20073;-71
2023/12/29 01:51:53;;;;;;;11.77;2.65;;;19.20;1.00;;;;;;5056899;28;20093;-71
2023/12/29 01:54:20;;;;;;;11.93;2.75;;;19.20;1.00;;;;;;5073584;28;20044;-71
2023/12/29 01:56:47;;;;;;;15.23;2.97;;;19.30;1.00;;;;;;5073426;28;20044;-70
2023/12/29 01:59:12;;;;;;;13.30;3.30;;;19.40;1.00;;;;;;5073626;28;20075;-71
2023/12/29 02:01:41;;;;;;;12.23;2.58;;;19.20;1.00;;;;;;5073521;28;20074;-71
2023/12/29 02:04:07;;;;;;;9.35;2.47;;;;;;;;;;5073031;28;20484;-71
2023/12/29 02:06:34;;;;;;;8.32;1.80;;;19.30;1.00;;;;;;5073310;28;20044;-71
2023/12/29 02:09:02;;;;;;;10.40;1.92;;;19.20;1.00;;;;;;5073404;28;20080;-71
2023/12/29 02:11:27;;;;;;;9.73;2.95;;;18.80;1.00;;;;;;5073794;28;20098;-71
2023/12/29 02:13:53;;;;;;;11.88;2.40;;;19.00;1.00;;;;;;5072838;28;20508;-71
2023/12/29 02:16:52;;;;;;;14.63;2.80;;;18.90;1.00;;;;;;5073343;28;20086;-71
2023/12/29 02:19:37;;;;;;;11.15;2.20;;;18.90;1.00;;;;;;5091721;28;20460;-71
2023/12/29 02:22:03;;;;;;;17.05;2.17;;;;;;;;;;5073054;28;20070;-72
2023/12/29 02:24:29;;;;;;;16.40;2.60;;;;;;;;;;5091403;28;20062;-72
2023/12/29 02:27:09;;;;;;;15.52;3.25;;;19.00;1.00;;;;;;5073232;28;20048;-71
2023/12/29 02:29:36;;;;;;;23.45;3.63;;;19.00;1.00;;;;;;5091467;28;20040;-71
2023/12/29 02:32:04;;;;;;;18.73;4.07;;;18.90;1.00;;;;;;5072716;28;20515;-71
2023/12/29 02:34:32;;;;;;;25.33;4.40;;;19.20;1.00;;;;;;5073315;28;20040;-71
2023/12/29 02:36:58;;;;;;;24.73;4.18;;;18.60;1.00;;;;;;5073405;28;20081;-71
2023/12/29 02:39:24;;;;;;;17.30;3.95;;;19.30;1.00;;;;;;5073148;28;20075;-71
2023/12/29 02:41:50;;;;;;;21.02;3.97;;;;;;;;;;5072621;28;20511;-71
2023/12/29 02:44:15;;;;;;;28.50;5.88;;;19.30;1.00;;;;;;5073443;28;20047;-71
2023/12/29 02:46:41;;;;;;;30.52;6.07;;;19.50;1.00;;;;;;5074602;28;20036;-71
2023/12/29 02:49:11;;;;;;;43.38;6.55;;;19.60;1.00;;;;;;5076999;28;20036;-71
2023/12/29 02:51:36;;;;;;;33.97;6.07;;;19.50;1.00;;;;;;5076699;28;20075;-71
2023/12/29 02:54:02;;;;;;;29.25;5.25;;;;;;;;;;5077036;28;20462;-72
2023/12/29 02:56:28;;;;;;;40.58;6.25;;;;;;;;;;5077201;28;20042;-71
2023/12/29 02:58:54;;;;;;;30.50;5.60;;;19.40;1.00;;;;;;5076792;28;20291;-71
2023/12/29 03:01:19;;;;;;;29.25;6.13;;;19.60;1.00;;;;;;5076863;28;20036;-71
2023/12/29 03:03:45;;;;;;;35.83;6.22;;;19.80;1.00;;;;;;5075877;28;20036;-71
2023/12/29 03:06:11;;;;;;;29.50;5.40;;;;;;;;;;5076391;28;20122;-71
2023/12/29 03:08:37;;;;;;;39.10;6.65;;;;;;;;;;5076672;28;20062;-73
2023/12/29 03:11:03;;;;;;;28.15;5.00;;;;;;;;;;5076719;28;20044;-71
2023/12/29 03:13:29;;;;;;;33.80;6.20;;;19.70;1.00;;;;;;5059028;28;20048;-71
2023/12/29 03:15:54;;;;;;;29.27;6.22;;;19.80;1.00;;;;;;5076288;28;20552;-71
2023/12/29 03:18:20;;;;;;;29.25;5.75;;;19.80;1.00;;;;;;5076551;28;20121;-71
2023/12/29 03:20:46;;;;;;;27.77;5.07;;;;;;;;;;5059621;28;20040;-71
2023/12/29 03:23:12;;;;;;;35.13;5.75;;;;;;;;;;5075839;28;20485;-71
2023/12/29 03:25:38;;;;;;;29.65;5.85;;;;;;;;;;5075955;28;20133;-72
2023/12/29 03:28:04;;;;;;;26.95;5.32;;;;;;;;;;5076171;28;20075;-72
2023/12/29 03:30:30;;;;;;;38.05;5.80;;;;;;;;;;5076053;28;20202;-73
2023/12/29 03:32:56;;;;;;;25.85;5.25;;;;;;;;;;5075463;28;20092;-71
2023/12/29 03:35:21;;;;;;;33.10;5.53;;;19.70;1.00;;;;;;5076028;28;20046;-71
2023/12/29 03:37:47;;;;;;;26.50;5.70;;;19.50;1.00;;;;;;5075884;28;20036;-71
2023/12/29 03:40:13;;;;;;;37.20;5.60;;;19.50;1.00;;;;;;5075993;28;20039;-71
2023/12/29 03:42:40;;;;;;;25.77;5.22;;;19.40;1.00;;;;;;5058752;28;20054;-71
2023/12/29 03:45:06;;;;;;;40.78;6.05;;;;;;;;;;5075678;28;20079;-71
2023/12/29 03:47:31;;;;;;;35.90;6.18;;;19.30;1.00;;;;;;5075900;28;20388;-71
2023/12/29 03:49:57;;;;;;;27.20;4.85;;;19.50;1.00;;;;;;5075671;28;20046;-71
2023/12/29 03:52:23;;;;;;;29.33;5.10;;;19.40;1.00;;;;;;5075024;28;20032;-71
2023/12/29 03:54:49;;;;;;;28.00;5.85;;;;;;;;;;5075612;28;20525;-71
2023/12/29 03:57:14;;;;;;;34.38;5.97;;;19.40;1.00;;;;;;5075081;28;20219;-71
2023/12/29 03:59:40;;;;;;;27.77;7.07;;;19.50;1.00;;;;;;5075108;28;20048;-71
2023/12/29 04:02:06;;;;;;;27.35;5.45;;;19.40;1.00;;;;;;5075040;28;20376;-71
2023/12/29 04:04:31;;;;;;;23.30;5.00;;;19.60;1.00;;;;;;5093561;28;20047;-71
2023/12/29 04:06:57;;;;;;;26.27;5.05;;;19.40;1.00;;;;;;5075222;28;20491;-71
2023/12/29 04:09:23;;;;;;;32.97;5.35;;;19.50;1.00;;;;;;5075337;28;20036;-71
2023/12/29 04:11:48;;;;;;;35.00;5.15;;;19.40;1.00;;;;;;5058110;28;20044;-68
2023/12/29 04:14:14;;;;;;;28.35;5.70;;;;;;;;;;5075921;28;20046;-71
2023/12/29 04:16:40;;;;;;;24.58;4.97;;;;;;;;;;5075238;28;20039;-71
2023/12/29 04:19:06;;;;;;;36.20;6.53;;;;;;;;;;5075502;28;20079;-71
2023/12/29 04:21:32;;;;;;;27.52;5.50;;;;;;;;;;5075009;28;20519;-72
2023/12/29 04:23:58;;;;;;;32.97;6.80;;;19.40;1.00;;;;;;5074676;28;20043;-71
2023/12/29 04:26:23;;;;;;;26.92;4.93;;;19.40;1.00;;;;;;5075195;28;20036;-71
2023/12/29 04:28:49;;;;;;;30.02;5.75;;;19.60;1.00;;;;;;5093041;28;20443;-71
2023/12/29 04:31:15;;;;;;;24.98;6.07;;;;;;;;;;5092961;28;20032;-71
2023/12/29 04:33:41;;;;;;;28.17;4.72;;;;;;;;;;5074348;28;20061;-71
2023/12/29 04:36:07;;;;;;;20.20;4.15;;;;;;;;;;5092734;28;20044;-72
2023/12/29 04:38:33;;;;;;;22.45;4.93;;;19.30;1.00;;;;;;5074883;28;20032;-71
2023/12/29 04:40:58;;;;;;;22.65;4.82;;;19.40;1.00;;;;;;5075006;28;20059;-71
2023/12/29 04:43:24;;;;;;;25.05;4.82;;;19.60;1.00;;;;;;5074252;28;20075;-71
2023/12/29 04:45:49;;;;;;;23.38;4.45;;;19.40;1.00;;;;;;5074509;28;20499;-72
2023/12/29 04:48:15;;;;;;;29.17;5.45;;;19.40;1.00;;;;;;5057788;28;20043;-71
2023/12/29 04:50:40;;;;;;;31.42;5.80;;;19.30;1.00;;;;;;5074676;28;20123;-71
2023/12/29 04:53:06;;;;;;;20.63;4.57;;;19.30;1.00;;;;;;5073969;28;20046;-71
2023/12/29 04:55:32;;;;;;;20.50;3.90;;;;;;;;;;5057960;28;20036;-71
2023/12/29 04:57:58;;;;;;;19.95;4.05;;;;;;;;;;5074584;28;20040;-72
2023/12/29 05:00:23;;;;;;;23.00;4.22;;;19.50;1.00;;;;;;5057954;28;20156;-71
2023/12/29 05:02:49;;;;;;;24.15;5.20;;;19.40;1.00;;;;;;5073843;28;20043;-71
2023/12/29 05:05:14;;;;;;;22.38;4.72;;;19.50;1.00;;;;;;5074002;28;20048;-71
2023/12/29 05:07:40;;;;;;;22.63;6.57;;;19.80;1.00;;;;;;5074311;28;20046;-71
2023/12/29 05:10:07;;;;;;;34.50;5.80;;;19.70;1.00;;;;;;5073970;28;20065;-71
2023/12/29 05:12:33;;;;;;;28.10;4.18;;;;;;;;;;5073851;28;20085;-71
2023/12/29 05:14:59;;;;;;;29.90;4.65;;;;;;;;;;5073803;28;20040;-72
2023/12/29 05:17:25;;;;;;;20.55;4.75;;;;;;;;;;5074036;28;20082;-72
2023/12/29 05:19:50;;;;;;;29.77;4.78;;;19.50;1.00;;;;;;5073986;28;20135;-71
2023/12/29 05:22:17;;;;;;;29.95;4.72;;;19.40;1.00;;;;;;5073733;28;20046;-71
2023/12/29 05:24:45;;;;;;;28.58;5.25;;;;;;;;;;5073862;28;20518;-72
2023/12/29 05:27:10;;;;;;;28.38;5.47;;;19.50;1.00;;;;;;5073785;28;20040;-70
2023/12/29 05:29:36;;;;;;;25.10;5.07;;;19.40;1.00;;;;;;5073885;28;20032;-71
2023/12/29 05:32:02;;;;;;;26.13;5.07;;;19.30;1.00;;;;;;5073290;28;20514;-71
2023/12/29 05:34:28;;;;;;;23.20;4.63;;;19.60;1.00;;;;;;5073723;28;20070;-71
2023/12/29 05:36:54;;;;;;;32.25;5.75;;;;;;;;;;5073712;28;20511;-72
2023/12/29 05:39:20;;;;;;;21.58;4.65;;;;;;;;;;5073859;28;20040;-71
2023/12/29 05:41:46;;;;;;;27.08;5.72;;;;;;;;;;5073834;28;20419;-72
2023/12/29 05:44:12;;;;;;;30.58;5.85;;;;;;;;;;5073373;28;20633;-71
2023/12/29 05:46:37;;;;;;;26.35;6.25;;;19.40;1.00;;;;;;5091695;28;20203;-71
2023/12/29 05:49:03;;;;;;;31.17;5.22;;;19.50;1.00;;;;;;5073898;28;20218;-71
2023/12/29 05:51:29;;;;;;;31.40;6.03;;;19.50;1.00;;;;;;5073669;28;20121;-70
2023/12/29 05:53:55;;;;;;;28.13;5.53;;;;;;;;;;5073140;28;20166;-71
2023/12/29 05:56:21;;;;;;;25.60;5.93;;;;;;;;;;5073733;28;20097;-71
2023/12/29 05:58:47;;;;;;;28.83;5.30;;;;;;;;;;5073588;28;20043;-72
2023/12/29 06:01:13;;;;;;;25.90;4.95;;;;;;;;;;5073567;28;20032;-72
2023/12/29 06:03:39;;;;;;;25.77;5.20;;;;;;;;;;5072873;28;20097;-72
2023/12/29 06:06:05;;;;;;;33.90;5.93;;;;;;;;;;5073463;28;20036;-71
2023/12/29 06:08:30;;;;;;;16.92;3.78;;;19.60;1.00;;;;;;5073832;28;20040;-70
2023/12/29 06:10:56;;;;;;;24.08;4.32;;;19.60;1.00;;;;;;5073422;28;20044;-71
2023/12/29 06:13:22;;;;;;;20.02;5.45;;;19.70;1.00;;;;;;5056072;28;20036;-71
2023/12/29 06:15:48;;;;;;;22.48;4.50;;;19.60;1.00;;;;;;5073500;28;20109;-71
2023/12/29 06:18:15;;;;;;;21.42;4.53;;;19.70;1.00;;;;;;5073612;28;20182;-71
2023/12/29 06:20:41;;;;;;;28.83;4.53;;;19.40;1.00;;;;;;5073743;28;20044;-71
2023/12/29 06:23:06;;;;;;;30.75;4.63;;;19.30;1.00;;;;;;5095266;28;20040;-71
2023/12/29 06:25:34;;;;;;;31.88;6.75;;;19.40;1.00;;;;;;5095267;28;20507;-71
2023/12/29 06:28:00;;;;;;;22.88;4.38;;;;;;;;;;5077187;28;20047;-69
2023/12/29 06:30:26;;;;;;;28.05;4.93;;;;;;;;;;5077105;28;20062;-71
2023/12/29 06:32:51;;;;;;;29.05;4.40;;;19.40;1.00;;;;;;5077057;28;20040;-71
2023/12/29 06:35:18;;;;;;;31.95;4.72;;;;;;;;;;5060723;28;20040;-71
2023/12/29 06:37:43;;;;;;;23.60;5.22;;;19.40;1.00;;;;;;5077073;28;20044;-71
2023/12/29 06:40:09;;;;;;;24.00;4.53;;;19.20;1.00;;;;;;5077073;28;20038;-71
2023/12/29 06:42:35;;;;;;;24.98;4.15;;;19.50;1.00;;;;;;5076413;28;20115;-71
2023/12/29 06:45:01;;;;;;;30.55;6.10;;;;;;;;;;5060082;28;20048;-71
2023/12/29 06:47:27;;;;;;;35.10;6.32;;;;;;;;;;5077152;28;20530;-71
2023/12/29 06:49:53;;;;;;;25.17;5.65;;;;;;;;;;5076792;28;20040;-71
2023/12/29 06:52:19;;;;;;;35.30;6.10;;;;;;;;;;5076594;28;20505;-72
2023/12/29 06:54:45;;;;;;;24.27;5.65;;;;;;;;;;5076732;28;20040;-72
2023/12/29 06:57:14;;;;;;;40.10;6.60;;;;;;;;;;5076811;28;20059;-73
2023/12/29 06:59:40;;;;;;;24.00;5.13;;;;;;;;;;5060128;28;20044;-71
2023/12/29 07:02:06;;;;;;;25.52;5.35;;;19.40;1.00;;;;;;5076408;28;20097;-71
2023/12/29 07:04:32;;;;;;;20.58;5.07;;;19.50;1.00;;;;;;5076520;28;20048;-71
2023/12/29 07:07:00;;;;;;;43.40;6.75;;;19.60;1.00;;;;;;5094585;28;20036;-72
2023/12/29 07:09:26;;;;;;;27.67;6.22;;;;;;;;;;5076692;28;20136;-71
2023/12/29 07:11:52;;;;;;;32.60;6.10;;;;;;;;;;5075923;28;20086;-71
2023/12/29 07:14:18;;;;;;;20.98;4.80;;;19.50;1.00;;;;;;5076195;28;20051;-71
2023/12/29 07:16:44;;;;;;;23.88;4.97;;;19.40;1.00;;;;;;5076103;28;20040;-71
2023/12/29 07:19:10;;;;;;;33.90;6.35;;;19.40;1.00;;;;;;5076368;28;20036;-71
2023/12/29 07:21:35;;;;;;;30.05;5.32;;;19.60;1.00;;;;;;5076223;28;20488;-71
2023/12/29 07:24:01;;;;;;;33.65;5.63;;;19.60;1.00;;;;;;5075634;28;20044;-71
2023/12/29 07:26:27;;;;;;;39.05;6.50;;;;;;;;;;5094256;28;20032;-71
2023/12/29 07:28:54;;;;;;;18.50;5.45;;;;;;;;;;5059274;28;20059;-72
2023/12/29 07:31:21;;;;;;;32.90;7.13;;;19.70;1.00;;;;;;5076114;28;20071;-71
2023/12/29 07:33:46;;;;;;;33.80;6.25;;;19.60;1.00;;;;;;5074046;28;20036;-71
2023/12/29 07:36:12;;;;;;;22.50;5.22;;;19.40;1.00;;;;;;5076084;28;20058;-71
2023/12/29 07:38:38;;;;;;;34.50;6.03;;;19.60;1.00;;;;;;5076157;28;20043;-71
2023/12/29 07:41:04;;;;;;;27.90;4.35;;;19.70;1.00;;;;;;5076157;28;20109;-71
2023/12/29 07:43:30;;;;;;;24.27;4.82;;;;;;;;;;5075123;28;20127;-71
2023/12/29 07:45:56;;;;;;;25.25;5.50;;;;;;;;;;5075764;28;20043;-71
2023/12/29 07:48:22;;;;;;;25.98;5.20;;;;;;;;;;5075791;28;20044;-71
2023/12/29 07:50:48;;;;;;;28.25;5.40;;;19.60;1.00;;;;;;5075725;28;20050;-71
2023/12/29 07:53:14;;;;;;;24.08;5.25;;;;;;;;;;5075191;28;20036;-72
2023/12/29 07:55:40;;;;;;;26.23;5.32;;;;;;;;;;5075494;28;20047;-72
2023/12/29 07:58:06;;;;;;;29.67;5.95;;;;;;;;;;5075463;28;20063;-72
2023/12/29 08:00:32;;;;;;;30.33;5.22;;;;;;;;;;5075464;28;20042;-72
2023/12/29 08:02:59;;;;;;;30.85;6.45;;;;;;;;;;5075237;28;20036;-71
2023/12/29 08:05:24;;;;;;;27.42;4.43;;;19.50;1.00;;;;;;5075196;28;20118;-71
2023/12/29 08:07:50;;;;;;;28.20;5.43;;;;;;;;;;5093573;28;20056;-72
2023/12/29 08:10:16;;;;;;;27.77;5.63;;;;;;;;;;5075290;28;20130;-71
2023/12/29 08:12:42;;;;;;;37.25;5.10;;;19.50;1.00;;;;;;5074731;28;20374;-71
2023/12/29 08:15:08;;;;;;;22.02;4.05;;;19.40;1.00;;;;;;5058411;28;20165;-71
2023/12/29 08:17:33;;;;;;;28.05;5.75;;;19.50;1.00;;;;;;5093374;28;20058;-71
2023/12/29 08:19:59;;;;;;;30.02;5.50;;;19.50;1.00;;;;;;5075420;28;20044;-71
2023/12/29 08:22:25;;;;;;;37.95;6.97;;;;;;;;;;5058586;28;20040;-71
2023/12/29 08:24:51;;;;;;;35.17;6.18;;;;;;;;;;5075845;28;20039;-71
2023/12/29 08:27:25;;;;;;;33.65;6.00;;;19.50;1.00;;;;;;5074784;28;20043;-71
2023/12/29 08:29:51;;;;;;;29.00;4.97;;;19.40;1.00;;;;;;5058287;28;20089;-71
2023/12/29 08:32:17;;;;;;;29.48;5.30;;;;;;;;;;5074588;28;20036;-71
2023/12/29 08:34:43;;;;;;;26.20;4.38;;;19.50;1.00;;;;;;5058206;28;20046;-71
2023/12/29 08:37:08;;;;;;;30.38;5.65;;;19.30;1.00;;;;;;5058085;28;20123;-71
2023/12/29 08:39:34;;;;;;;34.53;6.45;;;;;;;;;;5074779;28;20487;-71
2023/12/29 08:42:00;;;;;;;33.30;6.32;;;;;;;;;;5074239;28;20040;-71
2023/12/29 08:44:26;;;;;;;23.85;4.75;;;;;;;;;;5074238;28;20036;-71
2023/12/29 08:46:52;;;;;;;24.83;5.35;;;;;;;;;;5074569;28;20522;-72
2023/12/29 08:49:18;;;;;;;29.80;5.25;;;;;;;;;;5074546;28;20085;-71
2023/12/29 08:51:44;;;;;;;28.63;5.47;;;19.40;1.00;;;;;;5074775;28;20330;-71
2023/12/29 08:54:10;;;;;;;34.38;5.78;;;;;;;;;;5092075;28;20031;-71
2023/12/29 08:56:35;;;;;;;31.92;5.45;;;19.20;1.00;;;;;;5074148;28;20101;-71
2023/12/29 08:59:01;;;;;;;31.63;5.32;;;19.30;1.00;;;;;;5074400;28;20036;-71
2023/12/29 09:01:27;;;;;;;24.33;5.22;;;;;;;;;;5074644;28;20036;-72
2023/12/29 09:03:52;;;;;;;35.63;7.30;;;19.30;1.00;;;;;;5073685;28;20491;-71
2023/12/29 09:06:19;;;;;;;31.17;5.00;;;;;;;;;;5074311;28;20128;-71
2023/12/29 09:08:45;;;;;;;31.10;5.10;;;19.50;1.00;;;;;;5074208;28;20044;-71
2023/12/29 09:11:11;;;;;;;26.52;4.55;;;;;;;;;;5074097;28;20038;-71
2023/12/29 09:13:37;;;;;;;22.85;5.20;;;19.40;1.00;;;;;;5073469;28;20093;-71
2023/12/29 09:16:02;;;;;;;27.27;5.72;;;19.40;1.00;;;;;;5073994;28;20086;-71
2023/12/29 09:18:28;;;;;;;30.20;6.07;;;19.60;1.00;;;;;;5057559;28;20078;-72
2023/12/29 09:20:54;;;;;;;34.42;5.72;;;;;;;;;;5074318;28;20381;-71
2023/12/29 09:23:20;;;;;;;24.50;4.78;;;;;;;;;;5073619;28;20082;-73
2023/12/29 09:25:46;;;;;;;24.33;4.28;;;;;;;;;;5073733;28;20519;-72
2023/12/29 09:28:12;;;;;;;24.40;4.90;;;;;;;;;;5073923;28;20051;-69
2023/12/29 09:30:37;;;;;;;23.15;4.63;;;19.70;1.00;;;;;;5073901;28;20051;-71
2023/12/29 09:33:03;;;;;;;30.30;5.93;;;19.70;1.00;;;;;;5073311;28;20042;-71
2023/12/29 09:35:29;;;;;;;31.23;7.35;;;19.70;1.00;;;;;;5073592;28;20126;-71
2023/12/29 09:37:55;;;;;;;23.30;4.13;;;;;;;;;;5073780;28;20039;-71
2023/12/29 09:40:21;;;;;;;31.60;5.05;;;;;;;;;;5073636;28;20096;-72
2023/12/29 09:42:48;;;;;;;31.95;4.75;;;19.70;1.00;;;;;;5073186;28;20047;-71
2023/12/29 09:45:14;;;;;;;24.75;4.88;;;19.70;1.00;;;;;;5091801;28;20039;-71
2023/12/29 09:47:41;;;;;;;25.98;4.65;;;;;;;;;;5073934;28;20047;-71
2023/12/29 09:50:10;;;;;;;33.30;5.47;;;19.60;1.00;;;;;;5073441;28;20042;-71
2023/12/29 09:52:37;;;;;;;29.63;4.93;;;;;;;;;;5073074;28;20128;-70
2023/12/29 09:55:04;;;;;;;31.75;6.15;;;19.70;1.00;;;;;;5073458;28;20526;-71
2023/12/29 09:57:30;;;;;;;27.23;4.18;;;19.70;1.00;;;;;;5073018;28;20495;-71
2023/12/29 09:59:57;;;;;;;26.67;5.43;;;19.70;1.00;;;;;;5073570;28;20569;-71
2023/12/29 10:02:23;;;;;;;27.75;4.10;;;19.80;1.00;;;;;;5073206;28;20373;-71
2023/12/29 10:04:49;;;;;;;28.13;4.38;;;;;;;;;;5073441;28;20123;-70
2023/12/29 10:07:28;;;;;;;27.45;4.95;;;19.50;1.00;;;;;;5056493;28;20044;-71
2023/12/29 10:09:56;;;;;;;21.92;3.72;;;19.60;1.00;;;;;;5073547;28;20066;-72
2023/12/29 10:12:24;;;;;;;21.92;3.47;;;19.60;1.00;;;;;;5075069;28;20038;-72
2023/12/29 10:15:12;;;;;;;20.33;4.30;;;19.70;1.00;;;;;;5073860;28;20032;-71
2023/12/29 10:18:09;;;;;;;16.70;3.88;;;19.50;1.00;;;;;;5060451;28;20500;-71
2023/12/29 10:20:46;;;;;;;20.30;3.80;;;19.40;1.00;;;;;;5073836;28;20126;-71
2023/12/29 10:23:16;;;;;;;21.50;3.80;;;;;;;;;;5073071;28;20044;-72
2023/12/29 10:25:43;;;;;;;28.08;4.57;;;;;;;;;;5073211;28;20047;-72
2023/12/29 10:28:13;;;;;;;21.08;3.75;;;19.60;1.00;;;;;;5056536;28;20450;-72
2023/12/29 10:30:38;;;;;;;16.00;3.17;;;19.40;1.00;;;;;;5073363;28;20434;-71
2023/12/29 10:33:04;;;;;;;12.27;3.38;;;19.50;1.00;;;;;;5073074;28;20035;-71
2023/12/29 10:35:31;;;;;;;23.02;3.97;;;19.50;1.00;;;;;;5056448;28;20040;-70
2023/12/29 10:38:10;;;;;;;21.90;3.70;;;19.40;1.00;;;;;;5073217;28;20127;-71
2023/12/29 10:40:36;;;;;;;18.40;3.90;;;19.50;1.00;;;;;;5056673;28;20119;-71
2023/12/29 10:43:06;;;;;;;20.20;2.88;;;19.40;1.00;;;;;;5072911;28;20134;-71
2023/12/29 10:45:32;;;;;;;14.35;3.65;;;19.40;1.00;;;;;;5072975;28;20094;-71
2023/12/29 10:48:00;;;;;;;17.15;2.90;;;19.50;1.00;;;;;;5073501;28;20434;-71
2023/12/29 10:50:27;;;;;;;12.07;2.92;;;;;;;;;;5056426;28;20514;-72
2023/12/29 10:53:11;;;;;;;17.85;3.08;;;19.40;1.00;;;;;;5072528;28;20553;-71
2023/12/29 10:55:36;;;;;;;12.27;3.22;;;19.50;1.00;;;;;;5056169;28;20067;-71
2023/12/29 10:58:02;;;;;;;19.55;2.88;;;19.40;1.00;;;;;;5073047;28;20550;-71
2023/12/29 11:00:32;;;;;;;15.60;2.83;;;19.30;1.00;;;;;;5073176;28;20057;-72
2023/12/29 11:02:58;;;;;;;21.42;3.45;;;;;;;;;;5072489;28;20500;-71
2023/12/29 11:05:28;;;;;;;17.90;2.92;;;19.30;1.00;;;;;;5056132;28;20094;-71
2023/12/29 11:07:55;;;;;;;20.17;4.25;;;19.50;1.00;;;;;;5058060;28;20131;-71
2023/12/29 11:10:21;;;;;;;16.30;3.60;;;19.40;1.00;;;;;;5076412;28;20522;-72
2023/12/29 11:12:48;;;;;;;18.20;4.60;;;19.60;1.00;;;;;;5075949;28;20071;-71
2023/12/29 11:15:15;;;;;;;18.55;3.70;;;19.70;1.00;;;;;;5076383;28;20395;-71
2023/12/29 11:17:49;;;;;;;16.92;4.05;;;19.60;1.00;;;;;;5076558;28;20122;-71
2023/12/29 11:20:16;;;;;;;;;;;19.90;1.00;;;;;;5076645;28;20044;-71
2023/12/29 11:22:43;;;;;;;22.25;2.95;;;19.60;1.00;;;;;;5075674;28;19920;-72
2023/12/29 11:25:09;;;;;;;17.92;3.92;;;19.70;1.00;;;;;;5094417;28;20036;-71
2023/12/29 11:27:35;;;;;;;21.50;3.83;;;;;;;;;;5076164;28;20085;-71
2023/12/29 11:30:04;;;;;;;17.35;3.50;;;19.60;1.00;;;;;;5076098;28;20040;-72
2023/12/29 11:32:47;;;;;;;10.45;2.67;;;19.60;1.00;;;;;;5075518;28;20522;-71
2023/12/29 11:35:26;;;;;;;11.45;2.85;;;19.80;1.00;;;;;;5075916;28;20036;-71
2023/12/29 11:38:16;;;;;;;13.93;2.85;;;19.70;1.00;;;;;;5076024;28;20131;-72
2023/12/29 11:41:04;;;;;;;15.45;3.65;;;19.60;1.00;;;;;;5059572;28;20054;-72
2023/12/29 11:43:30;;;;;;;15.23;3.85;;;;;;;;;;5075339;28;20040;-73
2023/12/29 11:45:56;;;;;;;12.98;2.83;;;;;;;;;;5075762;28;20040;-72
2023/12/29 11:48:53;;;;;;;12.65;3.88;;;19.70;1.00;;;;;;5075804;28;20093;-71
2023/12/29 11:51:44;;;;;;;13.43;3.88;;;19.60;1.00;;;;;;5075569;28;20051;-71
2023/12/29 11:54:10;;;;;;;13.77;3.03;;;;;;;;;;5094260;28;20090;-71
2023/12/29 11:56:36;;;;;;;11.80;2.90;;;19.50;1.00;;;;;;5076107;28;20071;-71
2023/12/29 11:59:23;;;;;;;17.27;3.38;;;19.60;1.00;;;;;;5075878;28;20576;-71
2023/12/29 12:02:00;;;;;;;17.90;3.50;;;19.30;1.00;;;;;;5075642;28;20043;-71
2023/12/29 12:04:44;;;;;;;17.77;4.22;;;19.60;1.00;;;;;;5075938;28;20040;-71
2023/12/29 12:07:13;;;;;;;;;;;19.30;1.00;;;;;;5075656;28;20507;-70
2023/12/29 12:09:38;;;;;;;16.30;3.00;;;19.30;1.00;;;;;;5058953;28;20015;-72
2023/12/29 12:12:05;;;;;;;18.13;2.85;;;19.20;1.00;;;;;;5074924;28;20114;-71
2023/12/29 12:14:51;;;;;;;18.55;3.33;;;19.20;1.00;;;;;;5075229;28;20307;-71
2023/12/29 12:17:35;;;;;;;19.58;3.22;;;19.10;1.00;;;;;;5075036;28;20040;-71
2023/12/29 12:20:10;;;;;;;15.65;3.00;;;19.20;1.00;;;;;;5074739;28;20044;-71
2023/12/29 12:22:37;;;;;;;16.30;4.03;;;19.10;1.00;;;;;;5074434;28;20055;-71
2023/12/29 12:25:03;;;;;;;13.13;2.40;;;19.20;1.00;;;;;;5074831;28;20032;-71
2023/12/29 12:27:31;;;;;;;14.25;3.03;;;19.00;1.00;;;;;;5058634;28;20068;-71
2023/12/29 12:29:59;;;;;;;18.40;3.70;;;18.90;1.00;;;;;;5093214;28;20040;-71
2023/12/29 12:32:29;;;;;;;23.33;3.55;;;19.00;1.00;;;;;;5074722;28;20048;-71
2023/12/29 12:34:56;;;;;;;15.40;3.00;;;19.00;1.00;;;;;;5058124;28;20043;-71
2023/12/29 12:37:29;;;;;;;11.93;2.97;;;19.10;1.00;;;;;;5058103;28;20047;-71
2023/12/29 12:39:55;;;;;;;;;;;19.00;1.00;;;;;;5075315;28;20040;-72
2023/12/29 12:42:23;;;;;;;14.70;2.97;;;19.00;1.00;;;;;;5057687;28;19916;-71
2023/12/29 12:44:56;;;;;;;12.95;3.25;;;19.00;1.00;;;;;;5075055;28;20050;-71
2023/12/29 12:47:28;;;;;;;16.73;3.10;;;;;;;;;;5074629;28;20052;-71
2023/12/29 12:49:53;;;;;;;17.30;2.83;;;19.10;1.00;;;;;;5074507;28;20126;-71
2023/12/29 12:52:19;;;;;;;20.75;3.65;;;19.10;1.00;;;;;;5057385;28;20039;-72
2023/12/29 12:54:47;;;;;;;18.38;3.50;;;19.00;1.00;;;;;;5074507;28;20031;-72
2023/12/29 12:57:13;;;;;;;20.70;3.20;;;19.10;1.00;;;;;;5074294;28;20558;-71
2023/12/29 12:59:38;;;;;;;13.48;2.90;;;19.10;1.00;;;;;;5092667;28;20082;-71
2023/12/29 13:02:05;;;;;;;15.05;3.00;;;19.00;1.00;;;;;;5073844;28;20079;-71
2023/12/29 13:04:32;;;;;;;12.02;2.72;;;19.00;1.00;;;;;;5074204;28;20075;-71
2023/12/29 13:06:58;;;;;;;12.70;3.00;;;;;;;;;;5074132;28;20092;-72
2023/12/29 13:09:23;;;;;;;18.77;3.10;;;19.00;1.00;;;;;;5074246;28;20481;-70
2023/12/29 13:11:49;;;;;;;21.75;4.32;;;19.00;1.00;;;;;;5074272;28;20039;-71
2023/12/29 13:14:22;;;;;;;18.35;2.95;;;19.10;1.00;;;;;;5073539;28;20138;-71
2023/12/29 13:16:48;;;;;;;19.73;3.63;;;19.00;1.00;;;;;;5057604;28;20073;-71
2023/12/29 13:19:22;;;;;;;12.95;3.15;;;19.10;1.00;;;;;;5057504;28;20040;-72
2023/12/29 13:21:51;;;;;;;19.17;2.95;;;19.00;1.00;;;;;;5074068;28;20495;-73